sensor_id;sensor_type;location;lat;lon;timestamp;temperature;humidity
11132;DHT22;5620;53.570;9.718;2022-09-16T00:00:36;11.20;1.00
11132;DHT22;5620;53.570;9.718;2022-09-16T00:03:06;11.10;1.00
11132;DHT22;5620;53.570;9.718;2022-09-16T00:05:33;11.10;1.00
11132;DHT22;5620;53.570;9.718;2022-09-16T00:08:00;11.10;1.00
11132;DHT22;5620;53.570;9.718;2022-09-16T00:10:28;11.00;1.00
11132;DHT22;5620;53.570;9.718;2022-09-16T00:12:55;11.10;1.00
11132;DHT22;5620;53.570;9.718;2022-09-16T00:15:21;11.10;1.00
11132;DHT22;5620;53.570;9.718;2022-09-16T00:17:48;11.20;1.00
11132;DHT22;5620;53.570;9.718;2022-09-16T00:20:16;11.30;1.00
11132;DHT22;5620;53.570;9.718;2022-09-16T00:22:43;11.40;1.00
11132;DHT22;5620;53.570;9.718;2022-09-16T00:25:09;11.50;1.00
11132;DHT22;5620;53.570;9.718;2022-09-16T00:27:38;11.50;1.00
11132;DHT22;5620;53.570;9.718;2022-09-16T00:30:06;11.60;1.00
11132;DHT22;5620;53.570;9.718;2022-09-16T00:32:33;11.60;1.00
11132;DHT22;5620;53.570;9.718;2022-09-16T00:34:58;11.60;1.00
11132;DHT22;5620;53.570;9.718;2022-09-16T00:37:25;11.60;1.00
11132;DHT22;5620;53.570;9.718;2022-09-16T00:39:52;11.60;1.00
11132;DHT22;5620;53.570;9.718;2022-09-16T00:42:20;11.50;1.00
11132;DHT22;5620;53.570;9.718;2022-09-16T00:47:55;11.30;1.00
11132;DHT22;5620;53.570;9.718;2022-09-16T00:50:48;11.30;1.00
11132;DHT22;5620;53.570;9.718;2022-09-16T00:53:22;11.20;1.00
11132;DHT22;5620;53.570;9.718;2022-09-16T00:55:53;11.10;1.00
11132;DHT22;5620;53.570;9.718;2022-09-16T01:01:20;11.10;1.00
11132;DHT22;5620;53.570;9.718;2022-09-16T01:03:54;11.30;1.00
11132;DHT22;5620;53.570;9.718;2022-09-16T01:06:21;11.30;1.00
11132;DHT22;5620;53.570;9.718;2022-09-16T01:09:02;11.30;1.00
11132;DHT22;5620;53.570;9.718;2022-09-16T01:11:29;11.30;1.00
11132;DHT22;5620;53.570;9.718;2022-09-16T01:13:56;11.30;1.00
11132;DHT22;5620;53.570;9.718;2022-09-16T01:16:41;11.30;1.00
11132;DHT22;5620;53.570;9.718;2022-09-16T01:19:43;11.30;1.00
11132;DHT22;5620;53.570;9.718;2022-09-16T01:36:26;11.40;1.00
11132;DHT22;5620;53.570;9.718;2022-09-16T01:39:57;11.40;1.00
11132;DHT22;5620;53.570;9.718;2022-09-16T01:42:44;11.40;1.00
11132;DHT22;5620;53.570;9.718;2022-09-16T01:50:45;11.40;1.00
11132;DHT22;5620;53.570;9.718;2022-09-16T01:53:43;11.30;1.00
11132;DHT22;5620;53.570;9.718;2022-09-16T01:56:43;11.30;1.00
11132;DHT22;5620;53.570;9.718;2022-09-16T01:59:19;11.30;1.00
11132;DHT22;5620;53.570;9.718;2022-09-16T02:04:44;11.30;1.00
11132;DHT22;5620;53.570;9.718;2022-09-16T02:07:18;11.30;1.00
11132;DHT22;5620;53.570;9.718;2022-09-16T02:10:00;11.30;1.00
11132;DHT22;5620;53.570;9.718;2022-09-16T02:12:30;11.30;1.00
11132;DHT22;5620;53.570;9.718;2022-09-16T02:15:04;11.30;1.00
11132;DHT22;5620;53.570;9.718;2022-09-16T02:17:38;11.40;1.00
11132;DHT22;5620;53.570;9.718;2022-09-16T02:20:13;11.40;1.00
11132;DHT22;5620;53.570;9.718;2022-09-16T02:22:43;11.40;1.00
11132;DHT22;5620;53.570;9.718;2022-09-16T02:25:15;11.40;1.00
11132;DHT22;5620;53.570;9.718;2022-09-16T02:27:50;11.40;1.00
11132;DHT22;5620;53.570;9.718;2022-09-16T02:30:20;11.40;1.00
11132;DHT22;5620;53.570;9.718;2022-09-16T02:33:04;11.50;1.00
11132;DHT22;5620;53.570;9.718;2022-09-16T02:35:36;11.40;1.00
11132;DHT22;5620;53.570;9.718;2022-09-16T02:38:23;11.40;1.00
11132;DHT22;5620;53.570;9.718;2022-09-16T02:40:54;11.30;1.00
11132;DHT22;5620;53.570;9.718;2022-09-16T02:43:22;11.20;1.00
11132;DHT22;5620;53.570;9.718;2022-09-16T02:52:06;11.10;1.00
11132;DHT22;5620;53.570;9.718;2022-09-16T02:57:26;11.10;1.00
11132;DHT22;5620;53.570;9.718;2022-09-16T02:59:55;11.20;1.00
11132;DHT22;5620;53.570;9.718;2022-09-16T03:02:22;11.10;1.00
11132;DHT22;5620;53.570;9.718;2022-09-16T03:04:49;11.10;1.00
11132;DHT22;5620;53.570;9.718;2022-09-16T03:07:17;11.00;1.00
11132;DHT22;5620;53.570;9.718;2022-09-16T03:09:45;10.80;1.00
11132;DHT22;5620;53.570;9.718;2022-09-16T03:15:42;10.80;1.00
11132;DHT22;5620;53.570;9.718;2022-09-16T03:18:37;10.80;1.00
11132;DHT22;5620;53.570;9.718;2022-09-16T03:21:15;10.70;1.00
11132;DHT22;5620;53.570;9.718;2022-09-16T03:29:39;10.60;1.00
11132;DHT22;5620;53.570;9.718;2022-09-16T03:37:50;10.70;1.00
11132;DHT22;5620;53.570;9.718;2022-09-16T03:40:20;10.80;1.00
11132;DHT22;5620;53.570;9.718;2022-09-16T03:42:49;10.90;1.00
11132;DHT22;5620;53.570;9.718;2022-09-16T03:45:20;10.90;1.00
11132;DHT22;5620;53.570;9.718;2022-09-16T03:47:55;11.00;1.00
11132;DHT22;5620;53.570;9.718;2022-09-16T03:50:23;11.10;1.00
11132;DHT22;5620;53.570;9.718;2022-09-16T03:52:51;11.10;1.00
11132;DHT22;5620;53.570;9.718;2022-09-16T03:55:19;11.10;1.00
11132;DHT22;5620;53.570;9.718;2022-09-16T03:57:45;11.20;1.00
11132;DHT22;5620;53.570;9.718;2022-09-16T04:00:12;11.10;1.00
11132;DHT22;5620;53.570;9.718;2022-09-16T04:02:39;11.10;1.00
11132;DHT22;5620;53.570;9.718;2022-09-16T04:05:07;10.90;1.00
11132;DHT22;5620;53.570;9.718;2022-09-16T04:07:34;10.90;1.00
11132;DHT22;5620;53.570;9.718;2022-09-16T04:10:02;10.80;1.00
11132;DHT22;5620;53.570;9.718;2022-09-16T04:12:31;10.80;1.00
11132;DHT22;5620;53.570;9.718;2022-09-16T04:14:59;10.80;1.00
11132;DHT22;5620;53.570;9.718;2022-09-16T04:17:31;10.70;1.00
11132;DHT22;5620;53.570;9.718;2022-09-16T04:20:00;10.60;1.00
11132;DHT22;5620;53.570;9.718;2022-09-16T04:22:31;10.60;1.00
11132;DHT22;5620;53.570;9.718;2022-09-16T04:24:59;10.50;1.00
11132;DHT22;5620;53.570;9.718;2022-09-16T04:27:24;10.50;1.00
11132;DHT22;5620;53.570;9.718;2022-09-16T04:29:51;10.50;1.00
11132;DHT22;5620;53.570;9.718;2022-09-16T04:32:18;10.40;1.00
11132;DHT22;5620;53.570;9.718;2022-09-16T04:34:44;10.50;1.00
11132;DHT22;5620;53.570;9.718;2022-09-16T04:37:10;10.40;1.00
11132;DHT22;5620;53.570;9.718;2022-09-16T04:39:38;10.40;1.00
11132;DHT22;5620;53.570;9.718;2022-09-16T04:42:06;10.40;1.00
11132;DHT22;5620;53.570;9.718;2022-09-16T04:44:32;10.40;1.00
11132;DHT22;5620;53.570;9.718;2022-09-16T04:46:59;10.30;1.00
11132;DHT22;5620;53.570;9.718;2022-09-16T04:49:26;10.30;1.00
11132;DHT22;5620;53.570;9.718;2022-09-16T04:51:54;10.30;1.00
11132;DHT22;5620;53.570;9.718;2022-09-16T04:54:20;10.30;1.00
11132;DHT22;5620;53.570;9.718;2022-09-16T04:56:47;10.30;1.00
11132;DHT22;5620;53.570;9.718;2022-09-16T04:59:14;10.30;1.00
11132;DHT22;5620;53.570;9.718;2022-09-16T05:01:39;10.40;1.00
11132;DHT22;5620;53.570;9.718;2022-09-16T05:04:06;10.50;1.00
11132;DHT22;5620;53.570;9.718;2022-09-16T05:06:36;10.50;1.00
11132;DHT22;5620;53.570;9.718;2022-09-16T05:09:04;10.60;1.00
11132;DHT22;5620;53.570;9.718;2022-09-16T05:11:33;10.60;1.00
11132;DHT22;5620;53.570;9.718;2022-09-16T05:14:02;10.70;1.00
11132;DHT22;5620;53.570;9.718;2022-09-16T05:16:32;10.70;1.00
11132;DHT22;5620;53.570;9.718;2022-09-16T05:19:00;10.70;1.00
11132;DHT22;5620;53.570;9.718;2022-09-16T05:21:29;10.60;1.00
11132;DHT22;5620;53.570;9.718;2022-09-16T05:24:01;10.60;1.00
11132;DHT22;5620;53.570;9.718;2022-09-16T05:26:31;10.60;1.00
11132;DHT22;5620;53.570;9.718;2022-09-16T05:29:01;10.60;1.00
11132;DHT22;5620;53.570;9.718;2022-09-16T05:31:40;10.60;1.00
11132;DHT22;5620;53.570;9.718;2022-09-16T05:34:18;10.60;1.00
11132;DHT22;5620;53.570;9.718;2022-09-16T05:36:47;10.60;1.00
11132;DHT22;5620;53.570;9.718;2022-09-16T05:39:14;10.60;1.00
11132;DHT22;5620;53.570;9.718;2022-09-16T05:41:40;10.60;1.00
11132;DHT22;5620;53.570;9.718;2022-09-16T05:44:06;10.60;1.00
11132;DHT22;5620;53.570;9.718;2022-09-16T05:46:33;10.60;1.00
11132;DHT22;5620;53.570;9.718;2022-09-16T05:48:59;10.60;1.00
11132;DHT22;5620;53.570;9.718;2022-09-16T05:51:25;10.70;1.00
11132;DHT22;5620;53.570;9.718;2022-09-16T05:53:52;10.70;1.00
11132;DHT22;5620;53.570;9.718;2022-09-16T05:56:22;10.80;1.00
11132;DHT22;5620;53.570;9.718;2022-09-16T05:58:56;10.80;1.90
11132;DHT22;5620;53.570;9.718;2022-09-16T06:01:27;10.90;4.60
11132;DHT22;5620;53.570;9.718;2022-09-16T06:03:54;10.90;3.40
11132;DHT22;5620;53.570;9.718;2022-09-16T06:09:08;11.10;4.00
11132;DHT22;5620;53.570;9.718;2022-09-16T06:11:39;11.30;11.50
11132;DHT22;5620;53.570;9.718;2022-09-16T06:14:06;11.40;5.70
11132;DHT22;5620;53.570;9.718;2022-09-16T06:16:32;11.50;2.40
11132;DHT22;5620;53.570;9.718;2022-09-16T06:19:02;11.60;1.50
11132;DHT22;5620;53.570;9.718;2022-09-16T06:21:30;11.60;1.00
11132;DHT22;5620;53.570;9.718;2022-09-16T06:23:57;11.70;1.00
11132;DHT22;5620;53.570;9.718;2022-09-16T06:26:25;11.60;1.00
11132;DHT22;5620;53.570;9.718;2022-09-16T06:28:56;11.60;1.00
11132;DHT22;5620;53.570;9.718;2022-09-16T06:31:26;11.50;1.00
11132;DHT22;5620;53.570;9.718;2022-09-16T06:33:56;11.50;1.00
11132;DHT22;5620;53.570;9.718;2022-09-16T06:36:28;11.40;1.00
11132;DHT22;5620;53.570;9.718;2022-09-16T06:38:56;11.30;1.00
11132;DHT22;5620;53.570;9.718;2022-09-16T06:41:34;11.40;1.00
11132;DHT22;5620;53.570;9.718;2022-09-16T06:44:00;11.40;1.00
11132;DHT22;5620;53.570;9.718;2022-09-16T06:46:29;11.40;1.00
11132;DHT22;5620;53.570;9.718;2022-09-16T06:48:57;11.50;1.00
11132;DHT22;5620;53.570;9.718;2022-09-16T06:51:29;11.50;1.00
11132;DHT22;5620;53.570;9.718;2022-09-16T06:54:01;11.60;1.00
11132;DHT22;5620;53.570;9.718;2022-09-16T06:56:29;11.60;1.00
11132;DHT22;5620;53.570;9.718;2022-09-16T06:58:56;11.60;1.00
11132;DHT22;5620;53.570;9.718;2022-09-16T07:01:26;11.70;1.00
11132;DHT22;5620;53.570;9.718;2022-09-16T07:04:04;11.70;1.00
11132;DHT22;5620;53.570;9.718;2022-09-16T07:06:31;11.60;1.00
11132;DHT22;5620;53.570;9.718;2022-09-16T07:08:59;11.60;1.00
11132;DHT22;5620;53.570;9.718;2022-09-16T07:11:26;11.60;1.00
11132;DHT22;5620;53.570;9.718;2022-09-16T07:13:53;11.70;1.00
11132;DHT22;5620;53.570;9.718;2022-09-16T07:16:23;11.80;1.00
11132;DHT22;5620;53.570;9.718;2022-09-16T07:18:53;11.90;1.00
11132;DHT22;5620;53.570;9.718;2022-09-16T07:21:21;12.00;1.00
11132;DHT22;5620;53.570;9.718;2022-09-16T07:23:47;12.10;1.00
11132;DHT22;5620;53.570;9.718;2022-09-16T07:26:20;12.20;1.00
11132;DHT22;5620;53.570;9.718;2022-09-16T07:28:47;12.40;1.00
11132;DHT22;5620;53.570;9.718;2022-09-16T07:31:16;12.30;1.00
11132;DHT22;5620;53.570;9.718;2022-09-16T07:33:44;12.50;1.00
11132;DHT22;5620;53.570;9.718;2022-09-16T07:36:11;12.60;1.00
11132;DHT22;5620;53.570;9.718;2022-09-16T07:38:39;12.60;1.00
11132;DHT22;5620;53.570;9.718;2022-09-16T07:41:21;12.70;1.00
11132;DHT22;5620;53.570;9.718;2022-09-16T07:43:49;12.90;1.00
11132;DHT22;5620;53.570;9.718;2022-09-16T07:46:17;13.00;1.00
11132;DHT22;5620;53.570;9.718;2022-09-16T07:48:47;13.20;1.00
11132;DHT22;5620;53.570;9.718;2022-09-16T07:51:18;13.80;1.00
11132;DHT22;5620;53.570;9.718;2022-09-16T07:53:45;14.30;1.00
11132;DHT22;5620;53.570;9.718;2022-09-16T07:56:25;14.30;1.00
11132;DHT22;5620;53.570;9.718;2022-09-16T07:58:53;13.80;1.00
11132;DHT22;5620;53.570;9.718;2022-09-16T08:01:20;13.40;99.90
11132;DHT22;5620;53.570;9.718;2022-09-16T08:03:49;13.00;1.00
11132;DHT22;5620;53.570;9.718;2022-09-16T08:06:33;12.60;99.90
11132;DHT22;5620;53.570;9.718;2022-09-16T08:09:01;12.30;1.00
11132;DHT22;5620;53.570;9.718;2022-09-16T08:11:29;12.10;97.10
11132;DHT22;5620;53.570;9.718;2022-09-16T08:13:56;12.10;99.90
11132;DHT22;5620;53.570;9.718;2022-09-16T08:16:25;12.10;99.90
11132;DHT22;5620;53.570;9.718;2022-09-16T08:18:55;12.30;1.00
11132;DHT22;5620;53.570;9.718;2022-09-16T08:21:27;12.30;99.90
11132;DHT22;5620;53.570;9.718;2022-09-16T08:23:55;12.40;1.00
11132;DHT22;5620;53.570;9.718;2022-09-16T08:26:22;12.60;1.00
11132;DHT22;5620;53.570;9.718;2022-09-16T08:28:50;12.80;1.00
11132;DHT22;5620;53.570;9.718;2022-09-16T08:31:18;12.90;1.00
11132;DHT22;5620;53.570;9.718;2022-09-16T08:33:45;13.00;1.00
11132;DHT22;5620;53.570;9.718;2022-09-16T08:36:15;12.90;1.00
11132;DHT22;5620;53.570;9.718;2022-09-16T08:38:43;12.90;1.00
11132;DHT22;5620;53.570;9.718;2022-09-16T08:47:01;13.00;1.00
11132;DHT22;5620;53.570;9.718;2022-09-16T08:49:46;13.00;1.00
11132;DHT22;5620;53.570;9.718;2022-09-16T08:52:27;13.10;1.00
11132;DHT22;5620;53.570;9.718;2022-09-16T08:54:59;13.30;1.00
11132;DHT22;5620;53.570;9.718;2022-09-16T08:57:30;13.90;1.00
11132;DHT22;5620;53.570;9.718;2022-09-16T09:00:16;14.50;1.00
11132;DHT22;5620;53.570;9.718;2022-09-16T09:05:49;15.30;99.90
11132;DHT22;5620;53.570;9.718;2022-09-16T09:25:31;14.30;99.90
11132;DHT22;5620;53.570;9.718;2022-09-16T09:28:27;13.30;1.00
11132;DHT22;5620;53.570;9.718;2022-09-16T09:34:04;12.70;99.90
11132;DHT22;5620;53.570;9.718;2022-09-16T09:42:30;12.50;1.00
11132;DHT22;5620;53.570;9.718;2022-09-16T09:45:24;12.60;99.90
11132;DHT22;5620;53.570;9.718;2022-09-16T09:48:20;12.80;99.90
11132;DHT22;5620;53.570;9.718;2022-09-16T09:50:48;13.30;99.90
11132;DHT22;5620;53.570;9.718;2022-09-16T10:01:57;15.60;1.00
11132;DHT22;5620;53.570;9.718;2022-09-16T10:04:24;15.60;1.00
11132;DHT22;5620;53.570;9.718;2022-09-16T10:06:53;15.30;99.90
11132;DHT22;5620;53.570;9.718;2022-09-16T10:09:21;15.30;99.90
11132;DHT22;5620;53.570;9.718;2022-09-16T10:12:05;15.40;76.50
11132;DHT22;5620;53.570;9.718;2022-09-16T10:14:34;15.50;99.90
11132;DHT22;5620;53.570;9.718;2022-09-16T10:17:05;15.70;1.00
11132;DHT22;5620;53.570;9.718;2022-09-16T10:20:05;15.90;1.00
11132;DHT22;5620;53.570;9.718;2022-09-16T10:28:34;16.90;99.90
11132;DHT22;5620;53.570;9.718;2022-09-16T10:31:01;17.10;4.20
11132;DHT22;5620;53.570;9.718;2022-09-16T10:33:46;17.20;1.00
11132;DHT22;5620;53.570;9.718;2022-09-16T10:36:23;17.30;1.00
11132;DHT22;5620;53.570;9.718;2022-09-16T10:38:59;17.50;99.90
11132;DHT22;5620;53.570;9.718;2022-09-16T10:44:28;18.20;99.90
11132;DHT22;5620;53.570;9.718;2022-09-16T10:47:13;18.80;99.90
11132;DHT22;5620;53.570;9.718;2022-09-16T10:49:46;19.80;99.90
11132;DHT22;5620;53.570;9.718;2022-09-16T10:52:24;20.50;99.90
11132;DHT22;5620;53.570;9.718;2022-09-16T10:54:55;21.60;28.10
11132;DHT22;5620;53.570;9.718;2022-09-16T10:57:27;23.00;1.00
11132;DHT22;5620;53.570;9.718;2022-09-16T11:00:11;24.00;1.00
11132;DHT22;5620;53.570;9.718;2022-09-16T11:41:34;23.10;99.90
11132;DHT22;5620;53.570;9.718;2022-09-16T11:52:47;26.80;1.00
11132;DHT22;5620;53.570;9.718;2022-09-16T11:58:55;25.80;1.00
11132;DHT22;5620;53.570;9.718;2022-09-16T12:04:22;27.40;1.00
11132;DHT22;5620;53.570;9.718;2022-09-16T12:07:01;28.90;1.00
11132;DHT22;5620;53.570;9.718;2022-09-16T12:12:39;24.80;1.00
11132;DHT22;5620;53.570;9.718;2022-09-16T12:15:28;22.40;1.00
11132;DHT22;5620;53.570;9.718;2022-09-16T12:18:20;20.70;1.00
11132;DHT22;5620;53.570;9.718;2022-09-16T12:21:02;20.70;1.00
11132;DHT22;5620;53.570;9.718;2022-09-16T12:23:33;21.70;1.00
11132;DHT22;5620;53.570;9.718;2022-09-16T12:26:18;22.10;1.00
11132;DHT22;5620;53.570;9.718;2022-09-16T12:32:41;25.50;1.00
11132;DHT22;5620;53.570;9.718;2022-09-16T12:35:19;27.80;1.00
11132;DHT22;5620;53.570;9.718;2022-09-16T12:38:04;26.80;1.00
11132;DHT22;5620;53.570;9.718;2022-09-16T12:53:15;17.20;1.00
11132;DHT22;5620;53.570;9.718;2022-09-16T13:01:52;17.40;1.00
11132;DHT22;5620;53.570;9.718;2022-09-16T13:04:39;17.30;1.00
11132;DHT22;5620;53.570;9.718;2022-09-16T13:07:14;16.80;1.00
11132;DHT22;5620;53.570;9.718;2022-09-16T13:09:44;16.30;1.00
11132;DHT22;5620;53.570;9.718;2022-09-16T13:12:24;15.80;1.00
11132;DHT22;5620;53.570;9.718;2022-09-16T13:15:03;15.50;51.90
11132;DHT22;5620;53.570;9.718;2022-09-16T13:17:47;15.00;99.90
11132;DHT22;5620;53.570;9.718;2022-09-16T13:20:28;14.50;99.90
11132;DHT22;5620;53.570;9.718;2022-09-16T13:23:19;14.20;8.80
11132;DHT22;5620;53.570;9.718;2022-09-16T13:25:58;13.90;99.90
11132;DHT22;5620;53.570;9.718;2022-09-16T13:28:44;13.50;99.90
11132;DHT22;5620;53.570;9.718;2022-09-16T13:31:17;13.20;99.90
11132;DHT22;5620;53.570;9.718;2022-09-16T13:34:14;12.90;1.00
11132;DHT22;5620;53.570;9.718;2022-09-16T13:36:43;12.80;1.00
11132;DHT22;5620;53.570;9.718;2022-09-16T13:39:26;12.70;68.20
11132;DHT22;5620;53.570;9.718;2022-09-16T13:41:55;12.60;1.00
11132;DHT22;5620;53.570;9.718;2022-09-16T13:47:28;12.40;98.50
11132;DHT22;5620;53.570;9.718;2022-09-16T13:50:11;12.30;99.90
11132;DHT22;5620;53.570;9.718;2022-09-16T13:52:40;12.30;99.90
11132;DHT22;5620;53.570;9.718;2022-09-16T13:55:23;12.30;1.00
11132;DHT22;5620;53.570;9.718;2022-09-16T13:58:20;12.30;99.90
11132;DHT22;5620;53.570;9.718;2022-09-16T14:01:20;12.20;99.90
11132;DHT22;5620;53.570;9.718;2022-09-16T14:04:08;12.10;1.00
11132;DHT22;5620;53.570;9.718;2022-09-16T14:07:13;12.00;71.30
11132;DHT22;5620;53.570;9.718;2022-09-16T14:12:49;11.80;99.90
11132;DHT22;5620;53.570;9.718;2022-09-16T14:15:22;11.80;1.00
11132;DHT22;5620;53.570;9.718;2022-09-16T14:17:53;11.80;1.00
11132;DHT22;5620;53.570;9.718;2022-09-16T14:20:22;11.70;70.60
11132;DHT22;5620;53.570;9.718;2022-09-16T14:23:04;11.70;99.90
11132;DHT22;5620;53.570;9.718;2022-09-16T14:25:34;11.70;99.90
11132;DHT22;5620;53.570;9.718;2022-09-16T14:28:25;11.70;99.90
11132;DHT22;5620;53.570;9.718;2022-09-16T14:31:14;11.80;99.90
11132;DHT22;5620;53.570;9.718;2022-09-16T14:36:37;11.80;99.90
11132;DHT22;5620;53.570;9.718;2022-09-16T14:44:33;11.90;1.00
11132;DHT22;5620;53.570;9.718;2022-09-16T14:47:23;12.00;1.00
11132;DHT22;5620;53.570;9.718;2022-09-16T14:53:04;12.00;1.00
11132;DHT22;5620;53.570;9.718;2022-09-16T14:55:32;12.20;1.00
11132;DHT22;5620;53.570;9.718;2022-09-16T14:58:00;12.30;1.00
11132;DHT22;5620;53.570;9.718;2022-09-16T15:00:32;12.40;1.00
11132;DHT22;5620;53.570;9.718;2022-09-16T15:03:05;12.40;1.00
11132;DHT22;5620;53.570;9.718;2022-09-16T15:05:40;12.40;1.00
11132;DHT22;5620;53.570;9.718;2022-09-16T15:11:17;12.50;1.00
11132;DHT22;5620;53.570;9.718;2022-09-16T15:13:46;12.60;1.00
11132;DHT22;5620;53.570;9.718;2022-09-16T15:16:19;12.70;1.00
11132;DHT22;5620;53.570;9.718;2022-09-16T15:18:59;12.80;1.00
11132;DHT22;5620;53.570;9.718;2022-09-16T15:21:44;12.80;1.00
11132;DHT22;5620;53.570;9.718;2022-09-16T15:24:29;12.70;1.00
11132;DHT22;5620;53.570;9.718;2022-09-16T15:27:08;12.70;1.00
11132;DHT22;5620;53.570;9.718;2022-09-16T15:29:46;12.60;1.00
11132;DHT22;5620;53.570;9.718;2022-09-16T15:32:19;12.60;1.00
11132;DHT22;5620;53.570;9.718;2022-09-16T15:34:45;12.60;1.00
11132;DHT22;5620;53.570;9.718;2022-09-16T15:37:34;12.60;1.00
11132;DHT22;5620;53.570;9.718;2022-09-16T15:40:29;12.60;1.00
11132;DHT22;5620;53.570;9.718;2022-09-16T15:45:56;12.70;1.00
11132;DHT22;5620;53.570;9.718;2022-09-16T15:48:27;12.70;1.00
11132;DHT22;5620;53.570;9.718;2022-09-16T15:51:04;12.70;1.00
11132;DHT22;5620;53.570;9.718;2022-09-16T15:53:45;12.80;1.00
11132;DHT22;5620;53.570;9.718;2022-09-16T15:56:39;12.80;1.00
11132;DHT22;5620;53.570;9.718;2022-09-16T15:59:42;13.00;1.00
11132;DHT22;5620;53.570;9.718;2022-09-16T16:05:17;13.10;1.00
11132;DHT22;5620;53.570;9.718;2022-09-16T16:07:47;13.10;1.00
11132;DHT22;5620;53.570;9.718;2022-09-16T16:10:25;13.20;1.00
11132;DHT22;5620;53.570;9.718;2022-09-16T16:12:53;13.20;1.00
11132;DHT22;5620;53.570;9.718;2022-09-16T16:15:21;13.30;1.00
11132;DHT22;5620;53.570;9.718;2022-09-16T16:17:59;13.30;1.00
11132;DHT22;5620;53.570;9.718;2022-09-16T16:20:29;13.40;1.00
11132;DHT22;5620;53.570;9.718;2022-09-16T16:22:57;13.40;1.00
11132;DHT22;5620;53.570;9.718;2022-09-16T16:25:23;13.50;1.00
11132;DHT22;5620;53.570;9.718;2022-09-16T16:27:49;13.50;1.00
11132;DHT22;5620;53.570;9.718;2022-09-16T16:30:18;13.50;1.00
11132;DHT22;5620;53.570;9.718;2022-09-16T16:32:46;13.60;1.00
11132;DHT22;5620;53.570;9.718;2022-09-16T16:35:14;13.70;1.00
11132;DHT22;5620;53.570;9.718;2022-09-16T16:37:43;13.80;1.00
11132;DHT22;5620;53.570;9.718;2022-09-16T16:40:10;13.80;1.00
11132;DHT22;5620;53.570;9.718;2022-09-16T16:42:37;13.80;1.00
11132;DHT22;5620;53.570;9.718;2022-09-16T16:45:05;13.90;1.00
11132;DHT22;5620;53.570;9.718;2022-09-16T16:47:31;13.80;1.00
11132;DHT22;5620;53.570;9.718;2022-09-16T16:50:00;13.70;1.00
11132;DHT22;5620;53.570;9.718;2022-09-16T16:52:27;13.70;1.00
11132;DHT22;5620;53.570;9.718;2022-09-16T16:54:55;13.60;1.00
11132;DHT22;5620;53.570;9.718;2022-09-16T16:57:22;13.60;1.00
11132;DHT22;5620;53.570;9.718;2022-09-16T16:59:49;13.60;1.00
11132;DHT22;5620;53.570;9.718;2022-09-16T17:02:16;13.50;1.00
11132;DHT22;5620;53.570;9.718;2022-09-16T17:04:43;13.50;1.00
11132;DHT22;5620;53.570;9.718;2022-09-16T17:07:10;13.50;1.00
11132;DHT22;5620;53.570;9.718;2022-09-16T17:09:37;13.40;1.00
11132;DHT22;5620;53.570;9.718;2022-09-16T17:12:04;13.30;1.00
11132;DHT22;5620;53.570;9.718;2022-09-16T17:14:32;13.30;1.00
11132;DHT22;5620;53.570;9.718;2022-09-16T17:16:58;13.20;1.00
11132;DHT22;5620;53.570;9.718;2022-09-16T17:19:25;13.20;1.00
11132;DHT22;5620;53.570;9.718;2022-09-16T17:22:02;13.20;1.00
11132;DHT22;5620;53.570;9.718;2022-09-16T17:24:31;13.20;1.00
11132;DHT22;5620;53.570;9.718;2022-09-16T17:26:59;13.20;1.00
11132;DHT22;5620;53.570;9.718;2022-09-16T17:29:25;13.20;1.00
11132;DHT22;5620;53.570;9.718;2022-09-16T17:31:53;13.20;1.00
11132;DHT22;5620;53.570;9.718;2022-09-16T17:34:21;13.20;1.00
11132;DHT22;5620;53.570;9.718;2022-09-16T17:36:49;13.20;1.00
11132;DHT22;5620;53.570;9.718;2022-09-16T17:39:19;13.30;1.00
11132;DHT22;5620;53.570;9.718;2022-09-16T17:41:48;13.30;1.00
11132;DHT22;5620;53.570;9.718;2022-09-16T17:44:14;13.20;1.00
11132;DHT22;5620;53.570;9.718;2022-09-16T17:46:42;13.10;1.00
11132;DHT22;5620;53.570;9.718;2022-09-16T17:49:21;13.10;1.00
11132;DHT22;5620;53.570;9.718;2022-09-16T17:51:47;13.10;1.00
11132;DHT22;5620;53.570;9.718;2022-09-16T17:54:16;13.10;1.00
11132;DHT22;5620;53.570;9.718;2022-09-16T17:56:44;13.10;1.00
11132;DHT22;5620;53.570;9.718;2022-09-16T17:59:14;13.10;1.00
11132;DHT22;5620;53.570;9.718;2022-09-16T18:01:42;13.00;1.00
11132;DHT22;5620;53.570;9.718;2022-09-16T18:04:09;13.00;1.00
11132;DHT22;5620;53.570;9.718;2022-09-16T18:06:43;13.00;1.00
11132;DHT22;5620;53.570;9.718;2022-09-16T18:09:09;13.00;1.00
11132;DHT22;5620;53.570;9.718;2022-09-16T18:11:39;13.00;1.00
11132;DHT22;5620;53.570;9.718;2022-09-16T18:14:06;12.90;1.00
11132;DHT22;5620;53.570;9.718;2022-09-16T18:16:34;12.80;1.00
11132;DHT22;5620;53.570;9.718;2022-09-16T18:19:02;12.70;1.00
11132;DHT22;5620;53.570;9.718;2022-09-16T18:21:48;12.70;1.00
11132;DHT22;5620;53.570;9.718;2022-09-16T18:24:15;12.70;1.00
11132;DHT22;5620;53.570;9.718;2022-09-16T18:26:40;12.70;1.00
11132;DHT22;5620;53.570;9.718;2022-09-16T18:29:08;12.70;1.00
11132;DHT22;5620;53.570;9.718;2022-09-16T18:31:40;12.70;1.00
11132;DHT22;5620;53.570;9.718;2022-09-16T18:34:08;12.70;1.00
11132;DHT22;5620;53.570;9.718;2022-09-16T18:36:35;12.60;1.00
11132;DHT22;5620;53.570;9.718;2022-09-16T18:39:05;12.60;1.00
11132;DHT22;5620;53.570;9.718;2022-09-16T18:41:34;12.50;1.00
11132;DHT22;5620;53.570;9.718;2022-09-16T18:44:06;12.50;1.00
11132;DHT22;5620;53.570;9.718;2022-09-16T18:46:35;12.50;1.00
11132;DHT22;5620;53.570;9.718;2022-09-16T18:49:03;12.40;1.00
11132;DHT22;5620;53.570;9.718;2022-09-16T18:51:41;12.50;1.00
11132;DHT22;5620;53.570;9.718;2022-09-16T18:54:14;12.50;1.00
11132;DHT22;5620;53.570;9.718;2022-09-16T18:56:41;12.50;1.00
11132;DHT22;5620;53.570;9.718;2022-09-16T18:59:19;12.60;1.00
11132;DHT22;5620;53.570;9.718;2022-09-16T19:01:46;12.70;1.00
11132;DHT22;5620;53.570;9.718;2022-09-16T19:04:14;12.70;1.00
11132;DHT22;5620;53.570;9.718;2022-09-16T19:06:44;12.80;1.00
11132;DHT22;5620;53.570;9.718;2022-09-16T19:09:25;12.80;1.00
11132;DHT22;5620;53.570;9.718;2022-09-16T19:11:51;12.80;1.00
11132;DHT22;5620;53.570;9.718;2022-09-16T19:14:20;12.80;1.00
11132;DHT22;5620;53.570;9.718;2022-09-16T19:16:46;12.80;1.00
11132;DHT22;5620;53.570;9.718;2022-09-16T19:19:14;12.80;1.00
11132;DHT22;5620;53.570;9.718;2022-09-16T19:21:41;12.70;1.00
11132;DHT22;5620;53.570;9.718;2022-09-16T19:24:13;12.60;1.00
11132;DHT22;5620;53.570;9.718;2022-09-16T19:26:41;12.60;1.00
11132;DHT22;5620;53.570;9.718;2022-09-16T19:29:09;12.50;1.00
11132;DHT22;5620;53.570;9.718;2022-09-16T19:31:39;12.50;1.00
11132;DHT22;5620;53.570;9.718;2022-09-16T19:34:05;12.50;1.00
11132;DHT22;5620;53.570;9.718;2022-09-16T19:36:36;12.40;1.00
11132;DHT22;5620;53.570;9.718;2022-09-16T19:39:07;12.40;1.00
11132;DHT22;5620;53.570;9.718;2022-09-16T19:41:36;12.40;1.00
11132;DHT22;5620;53.570;9.718;2022-09-16T19:44:06;12.40;1.00
11132;DHT22;5620;53.570;9.718;2022-09-16T19:46:35;12.30;1.00
11132;DHT22;5620;53.570;9.718;2022-09-16T19:49:03;12.30;1.00
11132;DHT22;5620;53.570;9.718;2022-09-16T19:51:29;12.30;1.00
11132;DHT22;5620;53.570;9.718;2022-09-16T19:53:55;12.30;1.00
11132;DHT22;5620;53.570;9.718;2022-09-16T19:56:25;12.30;1.00
11132;DHT22;5620;53.570;9.718;2022-09-16T19:58:54;12.30;1.00
11132;DHT22;5620;53.570;9.718;2022-09-16T20:01:26;12.30;1.00
11132;DHT22;5620;53.570;9.718;2022-09-16T20:03:54;12.30;1.00
11132;DHT22;5620;53.570;9.718;2022-09-16T20:06:23;12.40;1.60